createdAt,value
2023-03-12T00:01:13.151Z,15.10
2023-03-12T00:03:41.011Z,16.07
2023-03-12T00:06:11.004Z,16.57
2023-03-12T00:08:40.826Z,16.90
2023-03-12T00:11:09.991Z,16.20
2023-03-12T00:13:37.994Z,15.40
2023-03-12T00:16:08.275Z,14.77
2023-03-12T00:18:36.155Z,15.63
2023-03-12T00:21:03.716Z,15.00
2023-03-12T00:23:31.210Z,15.17
2023-03-12T00:26:04.164Z,15.50
2023-03-12T00:28:32.198Z,14.90
2023-03-12T00:30:59.732Z,16.73
2023-03-12T00:33:27.617Z,14.47
2023-03-12T00:35:55.263Z,15.50
2023-03-12T00:38:23.501Z,13.80
2023-03-12T00:40:50.952Z,14.33
2023-03-12T00:43:19.737Z,13.00
2023-03-12T00:45:47.283Z,12.63
2023-03-12T00:48:14.777Z,10.57
2023-03-12T00:50:42.226Z,9.33
2023-03-12T00:53:09.696Z,9.60
2023-03-12T00:55:37.166Z,10.10
2023-03-12T00:58:04.631Z,8.63
2023-03-12T01:00:33.550Z,10.83
2023-03-12T01:03:01.046Z,9.10
2023-03-12T01:05:28.554Z,11.83
2023-03-12T01:07:56.034Z,9.27
2023-03-12T01:10:23.905Z,8.33
2023-03-12T01:12:51.368Z,6.93
2023-03-12T01:15:19.365Z,9.37
2023-03-12T01:17:48.216Z,9.90
2023-03-12T01:20:15.950Z,8.73
2023-03-12T01:22:44.082Z,9.40
2023-03-12T01:25:12.325Z,10.87
2023-03-12T01:27:39.798Z,12.97
2023-03-12T01:30:08.252Z,10.67
2023-03-12T01:32:35.839Z,10.07
2023-03-12T01:35:05.479Z,9.93
2023-03-12T01:37:33.550Z,8.83
2023-03-12T01:40:01.586Z,9.70
2023-03-12T01:42:29.038Z,11.53
2023-03-12T01:44:58.760Z,9.93
2023-03-12T01:47:27.579Z,10.73
2023-03-12T01:49:56.719Z,11.00
2023-03-12T01:52:28.445Z,12.77
2023-03-12T01:54:59.801Z,10.37
2023-03-12T01:57:32.686Z,11.50
2023-03-12T02:00:04.545Z,13.33
2023-03-12T02:02:32.123Z,12.83
2023-03-12T02:05:08.043Z,13.50
2023-03-12T02:07:36.897Z,11.80
2023-03-12T02:10:05.754Z,12.87
2023-03-12T02:12:33.252Z,14.53
2023-03-12T02:15:00.832Z,12.93
2023-03-12T02:17:28.588Z,13.57
2023-03-12T02:20:07.817Z,13.57
2023-03-12T02:22:37.471Z,10.97
2023-03-12T02:25:16.679Z,12.47
2023-03-12T02:27:44.715Z,14.30
2023-03-12T02:30:15.887Z,11.50
2023-03-12T02:32:44.994Z,10.53
2023-03-12T02:35:14.731Z,10.50
2023-03-12T02:37:48.966Z,9.67
2023-03-12T02:40:25.817Z,9.63
2023-03-12T02:42:54.398Z,10.33
2023-03-12T02:45:22.105Z,11.77
2023-03-12T02:47:49.548Z,12.50
2023-03-12T02:50:17.462Z,13.13
2023-03-12T02:52:44.917Z,10.70
2023-03-12T02:55:12.425Z,9.43
2023-03-12T02:57:42.785Z,10.80
2023-03-12T03:00:14.059Z,9.70
2023-03-12T03:02:42.539Z,7.93
2023-03-12T03:05:12.177Z,8.97
2023-03-12T03:07:39.657Z,10.30
2023-03-12T03:10:08.027Z,11.43
2023-03-12T03:12:36.876Z,11.57
2023-03-12T03:15:07.023Z,12.37
2023-03-12T03:17:34.502Z,9.80
2023-03-12T03:20:01.985Z,9.50
2023-03-12T03:22:29.461Z,9.80
2023-03-12T03:24:56.919Z,11.33
2023-03-12T03:27:24.376Z,10.77
2023-03-12T03:29:51.844Z,10.63
2023-03-12T03:32:20.735Z,11.57
2023-03-12T03:34:48.317Z,11.17
2023-03-12T03:37:15.878Z,10.60
2023-03-12T03:39:43.304Z,11.23
2023-03-12T03:42:10.766Z,10.43
2023-03-12T03:44:38.213Z,10.80
2023-03-12T03:47:05.892Z,10.73
2023-03-12T03:49:34.715Z,11.97
2023-03-12T03:52:02.166Z,11.17
2023-03-12T03:54:31.054Z,13.30
2023-03-12T03:56:58.514Z,12.90
2023-03-12T03:59:26.219Z,12.20
2023-03-12T04:01:53.680Z,13.47
2023-03-12T04:04:21.543Z,14.17
2023-03-12T04:06:50.342Z,14.93
2023-03-12T04:09:17.802Z,14.03
2023-03-12T04:11:45.240Z,13.73
2023-03-12T04:14:12.711Z,13.03
2023-03-12T04:16:40.202Z,14.57
2023-03-12T04:19:07.703Z,14.50
2023-03-12T04:21:35.191Z,13.23
2023-03-12T04:24:04.173Z,13.77
2023-03-12T04:26:31.882Z,14.57
2023-03-12T04:29:01.193Z,13.73
2023-03-12T04:31:28.674Z,14.20
2023-03-12T04:33:56.438Z,13.20
2023-03-12T04:36:23.901Z,12.53
2023-03-12T04:38:51.398Z,11.63
2023-03-12T04:41:20.800Z,12.20
2023-03-12T04:43:48.338Z,12.83
2023-03-12T04:46:16.323Z,14.77
2023-03-12T04:48:43.964Z,12.83
2023-03-12T04:51:11.635Z,12.77
2023-03-12T04:53:40.413Z,13.13
2023-03-12T04:56:08.699Z,14.90
2023-03-12T04:58:37.697Z,14.30
2023-03-12T05:01:06.594Z,15.93
2023-03-12T05:03:34.221Z,13.67
2023-03-12T05:06:01.739Z,15.60
2023-03-12T05:08:29.186Z,15.10
2023-03-12T05:10:56.656Z,15.50
2023-03-12T05:13:24.141Z,13.30
2023-03-12T05:15:53.327Z,15.03
2023-03-12T05:18:21.536Z,16.10
2023-03-12T05:20:58.265Z,16.03
2023-03-12T05:23:25.767Z,15.80
2023-03-12T05:25:53.308Z,16.63
2023-03-12T05:28:21.456Z,14.37
2023-03-12T05:30:48.958Z,14.47
2023-03-12T05:33:17.754Z,15.77
2023-03-12T05:35:45.298Z,15.60
2023-03-12T05:38:12.788Z,16.33
2023-03-12T05:40:40.315Z,15.77
2023-03-12T05:43:07.804Z,16.43
2023-03-12T05:45:35.292Z,15.13
2023-03-12T05:48:02.764Z,15.23
2023-03-12T05:50:31.610Z,14.97
2023-03-12T05:52:59.062Z,14.73
2023-03-12T05:55:26.546Z,14.63
2023-03-12T05:57:54.073Z,13.47
2023-03-12T06:00:22.185Z,13.40
2023-03-12T06:02:49.664Z,12.43
2023-03-12T06:05:17.133Z,12.57
2023-03-12T06:07:45.972Z,12.50
2023-03-12T06:10:13.708Z,11.80
2023-03-12T06:12:41.527Z,12.53
2023-03-12T06:15:10.151Z,13.17
2023-03-12T06:17:37.649Z,14.10
2023-03-12T06:20:06.037Z,16.03
2023-03-12T06:22:33.596Z,12.70
2023-03-12T06:25:02.478Z,11.83
2023-03-12T06:27:30.268Z,12.00
2023-03-12T06:29:57.836Z,11.53
2023-03-12T06:32:26.052Z,13.50
2023-03-12T06:34:53.586Z,13.80
2023-03-12T06:37:21.074Z,16.50
2023-03-12T06:39:48.562Z,13.43
2023-03-12T06:42:18.442Z,12.07
2023-03-12T06:44:46.187Z,10.67
2023-03-12T06:47:14.380Z,10.47
2023-03-12T06:49:43.365Z,11.30
2023-03-12T06:52:10.838Z,9.70
2023-03-12T06:54:38.325Z,10.60
2023-03-12T06:57:05.849Z,10.63
2023-03-12T06:59:34.709Z,12.77
2023-03-12T07:02:02.321Z,10.93
2023-03-12T07:04:29.805Z,11.43
2023-03-12T07:06:57.259Z,13.67
2023-03-12T07:09:24.746Z,14.17
2023-03-12T07:11:52.245Z,13.40
2023-03-12T07:14:20.255Z,14.13
2023-03-12T07:16:49.419Z,13.07
2023-03-12T07:19:19.322Z,12.03
2023-03-12T07:21:46.773Z,11.77
2023-03-12T07:24:14.243Z,10.80
2023-03-12T07:26:43.589Z,10.03
2023-03-12T07:29:11.444Z,9.50
2023-03-12T07:31:39.035Z,9.43
2023-03-12T07:34:08.013Z,8.73
2023-03-12T07:36:35.689Z,10.03
2023-03-12T07:39:04.467Z,8.70
2023-03-12T07:41:31.928Z,9.13
2023-03-12T07:43:59.457Z,8.50
2023-03-12T07:46:27.065Z,9.57
2023-03-12T07:48:54.529Z,8.83
2023-03-12T07:51:23.326Z,9.50
2023-03-12T07:53:50.787Z,7.57
2023-03-12T07:56:18.390Z,6.70
2023-03-12T07:58:46.593Z,7.93
2023-03-12T08:01:14.252Z,7.30
2023-03-12T08:03:41.999Z,7.17
2023-03-12T08:06:09.880Z,6.07
2023-03-12T08:08:41.735Z,5.93
2023-03-12T08:11:10.143Z,6.10
2023-03-12T08:13:37.626Z,6.07
2023-03-12T08:16:07.648Z,4.90
2023-03-12T08:18:36.848Z,5.00
2023-03-12T08:21:04.851Z,5.00
2023-03-12T08:23:32.345Z,5.00
2023-03-12T08:26:01.145Z,6.13
2023-03-12T08:28:28.764Z,6.53
2023-03-12T08:30:59.625Z,6.53
2023-03-12T08:33:27.525Z,6.37
2023-03-12T08:35:55.089Z,5.37
2023-03-12T08:38:22.867Z,5.50
2023-03-12T08:40:56.334Z,5.17
2023-03-12T08:43:25.154Z,4.07
2023-03-12T08:45:55.444Z,4.70
2023-03-12T08:48:22.968Z,3.97
2023-03-12T08:50:50.681Z,3.47
2023-03-12T08:53:18.704Z,4.13
2023-03-12T08:55:46.604Z,4.07
2023-03-12T08:58:14.068Z,3.67
2023-03-12T09:00:42.891Z,3.20
2023-03-12T09:03:13.859Z,3.10
2023-03-12T09:05:42.046Z,3.30
2023-03-12T09:08:10.191Z,3.70
2023-03-12T09:10:38.088Z,2.63
2023-03-12T09:13:06.101Z,2.50
2023-03-12T09:15:34.183Z,2.73
2023-03-12T09:18:02.993Z,2.60
2023-03-12T09:20:30.595Z,2.30
2023-03-12T09:22:58.126Z,2.30
2023-03-12T09:25:25.726Z,3.13
2023-03-12T09:27:53.203Z,4.20
2023-03-12T09:30:25.041Z,4.90
2023-03-12T09:32:52.689Z,4.78
2023-03-12T09:35:21.772Z,3.92
2023-03-12T09:37:49.918Z,4.00
2023-03-12T09:40:22.255Z,3.57
2023-03-12T09:42:53.261Z,4.53
2023-03-12T09:45:24.633Z,4.67
2023-03-12T09:47:54.934Z,4.27
2023-03-12T09:50:27.388Z,3.90
2023-03-12T09:53:00.300Z,4.07
2023-03-12T09:55:29.388Z,3.60
2023-03-12T09:57:59.051Z,3.37
2023-03-12T10:00:31.725Z,2.70
2023-03-12T10:03:17.787Z,3.70
2023-03-12T10:05:54.759Z,3.73
2023-03-12T10:08:31.356Z,3.97
2023-03-12T10:11:05.997Z,3.67
2023-03-12T10:13:46.963Z,3.83
2023-03-12T10:16:28.720Z,3.23
2023-03-12T10:19:14.353Z,2.90
2023-03-12T10:21:49.826Z,3.40
2023-03-12T10:24:31.557Z,3.40
2023-03-12T10:27:01.726Z,2.80
2023-03-12T10:29:32.643Z,3.37
2023-03-12T10:32:03.430Z,3.10
2023-03-12T10:34:37.440Z,3.10
2023-03-12T10:37:16.837Z,3.70
2023-03-12T10:39:45.086Z,3.50
2023-03-12T11:32:30.233Z,11.98
2023-03-12T11:34:58.120Z,9.80
2023-03-12T11:37:34.853Z,6.93
2023-03-12T11:40:16.943Z,7.17
2023-03-12T11:42:56.115Z,6.93
2023-03-12T11:45:30.590Z,6.60
2023-03-12T11:48:11.635Z,8.90
2023-03-12T11:50:52.567Z,10.77
2023-03-12T11:53:33.376Z,11.20
2023-03-12T11:56:21.255Z,10.73
2023-03-12T11:59:01.148Z,9.93
2023-03-12T12:01:40.417Z,9.00
2023-03-12T12:04:37.499Z,8.60
2023-03-12T12:07:13.301Z,8.17
2023-03-12T12:09:50.168Z,11.70
2023-03-12T12:12:28.261Z,36.23
2023-03-12T12:15:07.280Z,11.97
2023-03-12T12:17:48.142Z,9.57
2023-03-12T12:20:29.674Z,9.13
2023-03-12T12:23:15.567Z,8.40
2023-03-12T12:26:07.764Z,14.90
2023-03-12T12:28:50.103Z,19.10
2023-03-12T12:31:30.279Z,34.60
2023-03-12T12:34:24.015Z,51.37
2023-03-12T12:37:04.825Z,39.17
2023-03-12T12:39:36.403Z,41.17
2023-03-12T12:42:07.784Z,25.00
2023-03-12T12:44:42.098Z,47.30
2023-03-12T12:47:17.256Z,40.90
2023-03-12T12:49:48.698Z,47.63
2023-03-12T12:52:19.945Z,22.83
2023-03-12T12:54:56.182Z,40.70
2023-03-12T12:57:29.240Z,30.83
2023-03-12T13:00:11.933Z,27.43
2023-03-12T13:02:42.265Z,15.20
2023-03-12T13:05:20.797Z,12.37
2023-03-12T13:07:49.689Z,7.53
2023-03-12T13:10:48.594Z,8.43
2023-03-12T13:13:27.230Z,11.00
2023-03-12T13:16:20.769Z,12.47
2023-03-12T13:18:57.638Z,14.27
2023-03-12T13:21:31.848Z,13.60
2023-03-12T13:24:11.355Z,12.90
2023-03-12T13:26:52.942Z,12.47
2023-03-12T13:29:38.051Z,11.63
2023-03-12T13:32:09.977Z,11.50
2023-03-12T13:34:47.407Z,13.20
2023-03-12T13:37:56.627Z,11.33
2023-03-12T13:41:02.255Z,7.87
2023-03-12T13:43:52.417Z,7.17
2023-03-12T13:46:37.213Z,8.43
2023-03-12T13:49:11.294Z,8.00
2023-03-12T13:51:45.895Z,7.80
2023-03-12T13:54:18.765Z,7.90
2023-03-12T13:56:58.504Z,8.17
2023-03-12T13:59:28.502Z,8.43
2023-03-12T14:02:01.361Z,7.77
2023-03-12T14:04:34.947Z,7.97
2023-03-12T14:07:18.178Z,7.57
2023-03-12T14:09:54.377Z,8.43
2023-03-12T14:12:32.803Z,8.50
2023-03-12T14:15:18.494Z,7.73
2023-03-12T14:17:46.453Z,8.67
2023-03-12T14:20:18.997Z,8.77
2023-03-12T14:22:51.906Z,8.40
2023-03-12T14:25:27.944Z,8.47
2023-03-12T14:27:56.942Z,8.47
2023-03-12T14:30:29.550Z,8.20
2023-03-12T14:33:01.475Z,9.83
2023-03-12T14:35:33.964Z,9.47
2023-03-12T14:38:06.192Z,9.77
2023-03-12T14:40:40.585Z,9.40
2023-03-12T14:43:27.158Z,9.40
2023-03-12T14:45:59.068Z,10.50
2023-03-12T14:48:30.208Z,10.73
2023-03-12T14:50:58.594Z,11.60
2023-03-12T14:53:28.808Z,11.77
2023-03-12T14:56:01.394Z,11.67
2023-03-12T14:58:30.714Z,11.30
2023-03-12T15:01:00.391Z,11.77
2023-03-12T15:03:29.738Z,12.00
2023-03-12T15:05:58.076Z,11.97
2023-03-12T15:08:26.173Z,11.60
2023-03-12T15:10:56.714Z,11.63
2023-03-12T15:13:27.188Z,12.67
2023-03-12T15:15:56.956Z,13.03
2023-03-12T15:18:28.992Z,12.47
2023-03-12T15:20:58.903Z,12.77
2023-03-12T15:23:28.694Z,13.10
2023-03-12T15:26:19.178Z,12.97
2023-03-12T15:28:56.248Z,12.20
2023-03-12T15:31:25.228Z,12.80
2023-03-12T15:34:03.940Z,14.23
2023-03-12T15:36:33.472Z,12.80
2023-03-12T15:39:05.496Z,12.37
2023-03-12T15:41:48.746Z,11.97
2023-03-12T15:44:20.886Z,12.60
2023-03-12T15:46:52.783Z,12.97
2023-03-12T15:49:25.427Z,13.40
2023-03-12T15:52:01.479Z,13.37
2023-03-12T15:54:30.964Z,13.17
2023-03-12T15:57:18.956Z,13.17
2023-03-12T15:59:51.877Z,13.87
2023-03-12T16:02:38.982Z,14.47
2023-03-12T16:05:08.160Z,12.83
2023-03-12T16:07:35.832Z,13.80
2023-03-12T16:10:03.337Z,14.50
2023-03-12T16:12:30.886Z,13.50
2023-03-12T16:14:58.473Z,13.00
2023-03-12T16:17:25.950Z,13.13
2023-03-12T16:19:54.731Z,12.33
2023-03-12T16:22:22.466Z,12.73
2023-03-12T16:24:49.954Z,14.03
2023-03-12T16:27:31.728Z,13.43
2023-03-12T16:29:59.976Z,12.90
2023-03-12T16:32:27.606Z,12.73
2023-03-12T16:34:56.789Z,12.27
2023-03-12T16:37:25.506Z,12.20
2023-03-12T16:39:53.029Z,11.50
2023-03-12T16:42:21.925Z,13.10
2023-03-12T16:44:49.588Z,12.27
2023-03-12T16:47:17.074Z,12.50
2023-03-12T16:49:48.851Z,11.27
2023-03-12T16:52:19.465Z,13.83
2023-03-12T16:54:48.905Z,12.77
2023-03-12T16:57:23.292Z,12.40
2023-03-12T16:59:50.809Z,11.87
2023-03-12T17:02:21.026Z,11.40
2023-03-12T17:04:48.626Z,12.27
2023-03-12T17:07:17.949Z,10.30
2023-03-12T17:09:45.487Z,10.70
2023-03-12T17:12:20.659Z,10.80
2023-03-12T17:14:48.276Z,10.93
2023-03-12T17:17:15.718Z,10.83
2023-03-12T17:19:43.216Z,11.27
2023-03-12T17:22:11.026Z,11.40
2023-03-12T17:24:39.866Z,11.83
2023-03-12T17:27:07.469Z,12.30
2023-03-12T17:29:34.931Z,11.77
2023-03-12T17:32:02.545Z,12.20
2023-03-12T17:34:29.989Z,11.63
2023-03-12T17:36:58.955Z,12.97
2023-03-12T17:39:26.796Z,14.53
2023-03-12T17:41:55.762Z,13.70
2023-03-12T17:44:23.209Z,13.73
2023-03-12T17:46:59.213Z,15.17
2023-03-12T17:49:27.116Z,21.57
2023-03-12T17:51:57.095Z,19.23
2023-03-12T17:54:24.878Z,32.97
2023-03-12T17:56:52.309Z,24.60
2023-03-12T17:59:21.214Z,22.70
2023-03-12T18:01:48.668Z,26.17
2023-03-12T18:04:16.277Z,29.80
2023-03-12T18:06:43.725Z,33.13
2023-03-12T18:09:11.176Z,31.50
2023-03-12T18:11:38.618Z,26.37
2023-03-12T18:14:06.057Z,27.93
2023-03-12T18:16:34.859Z,28.83
2023-03-12T18:19:02.304Z,30.77
2023-03-12T18:21:29.784Z,29.37
2023-03-12T18:23:59.493Z,31.13
2023-03-12T18:26:29.574Z,33.73
2023-03-12T18:28:58.190Z,32.10
2023-03-12T18:31:25.754Z,35.80
2023-03-12T18:33:54.710Z,30.27
2023-03-12T18:36:22.514Z,25.17
2023-03-12T18:38:50.003Z,27.70
2023-03-12T18:41:17.465Z,35.03
2023-03-12T18:43:44.958Z,37.97
2023-03-12T18:46:12.945Z,40.87
2023-03-12T18:48:42.949Z,38.73
2023-03-12T18:51:12.754Z,39.53
2023-03-12T18:53:40.265Z,38.73
2023-03-12T18:56:08.249Z,41.97
2023-03-12T18:58:35.733Z,37.53
2023-03-12T19:01:03.218Z,38.63
2023-03-12T19:03:33.822Z,32.07
2023-03-12T19:06:02.635Z,31.83
2023-03-12T19:08:31.717Z,29.53
2023-03-12T19:10:59.187Z,33.50
2023-03-12T19:13:26.734Z,29.17
2023-03-12T19:15:58.990Z,35.47
2023-03-12T19:18:26.497Z,36.80
2023-03-12T19:20:54.034Z,33.27
2023-03-12T19:23:22.156Z,33.73
2023-03-12T19:25:51.067Z,33.40
2023-03-12T19:28:18.560Z,31.10
2023-03-12T19:30:46.142Z,28.80
2023-03-12T19:33:13.677Z,31.67
2023-03-12T19:35:42.539Z,30.70
2023-03-12T19:38:10.320Z,36.13
2023-03-12T19:40:37.822Z,33.03
2023-03-12T19:43:06.619Z,32.60
2023-03-12T19:45:34.227Z,32.67
2023-03-12T19:48:03.024Z,34.73
2023-03-12T19:50:30.541Z,33.73
2023-03-12T19:52:58.018Z,42.57
2023-03-12T19:55:25.541Z,34.13
2023-03-12T19:57:54.128Z,36.87
2023-03-12T20:00:23.358Z,39.67
2023-03-12T20:02:50.976Z,38.17
2023-03-12T20:05:18.650Z,40.33
2023-03-12T20:07:46.703Z,40.63
2023-03-12T20:10:14.238Z,35.50
2023-03-12T20:12:42.163Z,36.03
2023-03-12T20:15:10.346Z,38.17
2023-03-12T20:17:39.152Z,38.13
2023-03-12T20:20:09.162Z,35.57
2023-03-12T20:22:37.095Z,37.47
2023-03-12T20:25:05.510Z,37.13
2023-03-12T20:27:34.043Z,37.97
2023-03-12T20:30:03.429Z,35.60
2023-03-12T20:32:30.943Z,32.43
2023-03-12T20:35:00.160Z,38.27
2023-03-12T20:37:27.637Z,37.47
2023-03-12T20:39:55.094Z,34.57
2023-03-12T20:42:22.574Z,37.00
2023-03-12T20:44:50.061Z,33.33
2023-03-12T20:47:17.529Z,37.10
2023-03-12T20:49:45.060Z,37.77
2023-03-12T20:52:13.851Z,37.90
2023-03-12T20:54:41.607Z,37.70
2023-03-12T20:57:09.050Z,38.20
2023-03-12T20:59:36.557Z,38.73
2023-03-12T21:02:04.036Z,35.83
2023-03-12T21:04:31.554Z,39.83
2023-03-12T21:06:59.117Z,38.97
2023-03-12T21:09:27.944Z,38.57
2023-03-12T21:11:55.442Z,33.47
2023-03-12T21:14:22.915Z,37.67
2023-03-12T21:16:50.525Z,40.80
2023-03-12T21:19:17.992Z,41.40
2023-03-12T21:21:45.580Z,42.00
2023-03-12T21:24:13.101Z,45.20
2023-03-12T21:26:42.035Z,44.43
2023-03-12T21:29:09.773Z,51.37
2023-03-12T21:31:37.306Z,42.93
2023-03-12T21:34:04.782Z,52.50
2023-03-12T21:36:32.659Z,44.83
2023-03-12T21:39:01.698Z,43.03
2023-03-12T21:41:29.245Z,60.60
2023-03-12T21:44:02.889Z,51.10
2023-03-12T21:46:30.607Z,52.23
2023-03-12T21:48:58.951Z,53.70
2023-03-12T21:51:26.750Z,39.20
2023-03-12T21:53:55.048Z,49.37
2023-03-12T21:56:25.209Z,44.77
2023-03-12T21:58:52.722Z,52.80
2023-03-12T22:01:21.598Z,52.37
2023-03-12T22:03:49.185Z,43.40
2023-03-12T22:06:17.824Z,37.73
2023-03-12T22:08:47.916Z,33.47
2023-03-12T22:11:15.673Z,32.63
2023-03-12T22:13:43.367Z,30.73
2023-03-12T22:16:13.511Z,33.20
2023-03-12T22:18:44.875Z,52.23
2023-03-12T22:21:18.245Z,57.77
2023-03-12T22:23:47.748Z,79.63
2023-03-12T22:26:15.585Z,77.53
2023-03-12T22:28:43.088Z,77.17
2023-03-12T22:31:10.818Z,79.50
2023-03-12T22:33:38.439Z,76.70
2023-03-12T22:36:09.768Z,80.20
2023-03-12T22:38:38.150Z,64.43
2023-03-12T22:41:16.107Z,63.47
2023-03-12T22:43:43.842Z,81.07
2023-03-12T22:46:11.425Z,59.43
2023-03-12T22:48:38.946Z,77.03
2023-03-12T22:51:07.995Z,84.30
2023-03-12T22:53:35.974Z,86.10
2023-03-12T22:56:05.653Z,90.30
2023-03-12T22:58:33.603Z,99.87
2023-03-12T23:01:02.243Z,93.07
2023-03-12T23:03:30.684Z,87.20
2023-03-12T23:05:58.343Z,82.80
2023-03-12T23:08:28.199Z,62.00
2023-03-12T23:10:57.617Z,56.97
2023-03-12T23:13:26.191Z,55.00
2023-03-12T23:15:54.032Z,69.63
2023-03-12T23:18:21.746Z,61.50
2023-03-12T23:20:58.043Z,70.77
2023-03-12T23:23:27.291Z,66.07
2023-03-12T23:25:55.042Z,66.00
2023-03-12T23:28:22.516Z,65.17
2023-03-12T23:30:56.789Z,33.50
2023-03-12T23:33:24.573Z,34.87
2023-03-12T23:35:56.326Z,47.70
2023-03-12T23:38:24.228Z,40.67
2023-03-12T23:40:53.096Z,35.73
2023-03-12T23:43:20.990Z,26.87
2023-03-12T23:45:55.769Z,33.93
2023-03-12T23:48:23.266Z,36.60
2023-03-12T23:50:50.764Z,29.83
2023-03-12T23:53:18.227Z,27.23
2023-03-12T23:55:57.252Z,27.07
2023-03-12T23:58:25.075Z,29.87
